weather.gov     
National Weather Service

Terminal Aerodrome Forecast
NWS Homepage
This page is being discontinued on March 12, 2014.
The same data is available at this site. Please update your bookmarks.
Thank you, and we apologize for the inconvenience.
Please send an email to SR-SRH.Webmaster@noaa.gov with any concerns.


Current Version
Previous Version:    01  02  03  04  05  06  07  08  09  10  11  12  13  14  15  16  17  18  19  20  21  22  23  24  25  26  27  28  29  
[Printable]
645
FTUS42 KMLB 171100
TAFSFB
TAF
KSFB 171137Z 1712/1812 02008KT P6SM BKN050
     FM171300 03011KT P6SM SCT050
     FM171600 06014G22KT P6SM BKN040
     FM172200 06012KT P6SM VCSH SCT020 BKN030
     FM180200 02008KT P6SM -SHRA SCT008 BKN015 OVC020=


U.S. Dept. of Commerce
NOAA National Weather Service
1325 East West Highway
Silver Spring, MD 20910
E-mail: w-nws.webmaster@noaa.gov
Page last modified: May 16, 2007
NATIONAL WEATHER SERVICE: for Safety, for Work, for Fun - FOR LIFE